| time (UTC) | temp F | wind direction | speed knots | gust knots | rain 1hr in | rain 24hr in | rain mn in | humidity % | barometer mb |
| 20260902034524 | 61 | 0.0 | 0.0 | 0.00 | 0.00 | 0.00 | 86 | ||
| 20260902033524 | 61 | 0.0 | 0.0 | 0.00 | 0.00 | 0.00 | 86 | ||
| 20260902032524 | 60 | 126 | 0.0 | 0.9 | 0.00 | 0.00 | 0.00 | 86 | |
| 20260902031524 | 61 | 126 | 0.0 | 1.7 | 0.00 | 0.00 | 0.00 | 85 | |
| 20260902030524 | 61 | 276 | 0.0 | 1.7 | 0.00 | 0.00 | 0.00 | 85 | |
| 20260902025524 | 61 | 276 | 0.9 | 1.7 | 0.00 | 0.00 | 0.00 | 85 | |
| 20260902024524 | 61 | 265 | 0.9 | 2.6 | 0.00 | 0.00 | 0.00 | 85 | |
| 20260902023524 | 61 | 0.0 | 0.0 | 0.00 | 0.00 | 0.00 | 85 | ||
| 20260902022524 | 61 | 0.0 | 0.0 | 0.00 | 0.00 | 0.00 | 85 | ||
| 20260902021524 | 61 | 264 | 0.0 | 0.9 | 0.00 | 0.00 | 0.00 | 85 | |
| 20260902020524 | 61 | 0.0 | 0.0 | 0.00 | 0.00 | 0.00 | 84 | ||
| 20260902015524 | 61 | 269 | 0.9 | 1.7 | 0.00 | 0.00 | 0.00 | 84 | |
| 20260902014524 | 61 | 0.0 | 0.0 | 0.00 | 0.00 | 0.00 | 84 | ||
| 20260902013524 | 61 | 270 | 0.0 | 1.7 | 0.00 | 0.00 | 0.00 | 84 | |
| 20260902012524 | 61 | 270 | 0.0 | 1.7 | 0.00 | 0.00 | 0.00 | 84 | |
| 20260902011524 | 61 | 270 | 0.0 | 1.7 | 0.00 | 0.00 | 0.00 | 85 | |
| 20260902010524 | 61 | 0.0 | 0.0 | 0.00 | 0.00 | 0.00 | 85 | ||
| 20260902005524 | 61 | 270 | 0.0 | 0.9 | 0.00 | 0.00 | 0.00 | 84 | |
| 20260902004524 | 61 | 270 | 0.0 | 1.7 | 0.00 | 0.00 | 0.00 | 84 | |
| 20260902003524 | 61 | 270 | 0.9 | 2.6 | 0.00 | 0.00 | 0.00 | 84 | |
| 20260902002524 | 61 | 270 | 0.9 | 1.7 | 0.00 | 0.00 | 0.00 | 83 | |
| 20260902001524 | 61 | 270 | 0.9 | 3.5 | 0.00 | 0.00 | 0.00 | 84 | |
| 20260902000524 | 61 | 0.0 | 0.0 | 0.00 | 0.00 | 0.00 | 84 | ||
| 20260901235524 | 61 | 270 | 0.0 | 1.7 | 0.00 | 0.00 | 0.00 | 84 | |
| 20260901234524 | 61 | 270 | 0.0 | 1.7 | 0.00 | 0.00 | 0.00 | 84 | |
| 20260901233524 | 61 | 270 | 0.0 | 1.7 | 0.00 | 0.00 | 0.00 | 85 | |
| 20260901232524 | 61 | 0.0 | 0.0 | 0.00 | 0.00 | 0.00 | 85 | ||
| 20260901231524 | 60 | 0.0 | 0.0 | 0.00 | 0.00 | 0.00 | 84 | ||
| 20260901230524 | 61 | 0.0 | 0.0 | 0.00 | 0.00 | 0.00 | 83 | ||
| 20260901225524 | 60 | 270 | 0.0 | 1.7 | 0.00 | 0.00 | 0.00 | 83 | |
| 20260901224524 | 61 | 0.0 | 0.0 | 0.00 | 0.00 | 0.00 | 83 | ||
| 20260901223524 | 61 | 270 | 0.0 | 0.9 | 0.00 | 0.00 | 0.00 | 82 | |
| 20260901222524 | 62 | 271 | 0.9 | 1.7 | 0.00 | 0.00 | 0.00 | 81 | |
| 20260901221524 | 62 | 258 | 0.9 | 3.5 | 0.00 | 0.00 | 0.00 | 80 | |
| 20260901220525 | 61 | 260 | 0.9 | 2.6 | 0.00 | 0.00 | 0.00 | 80 | |
| 20260901215525 | 61 | 0.0 | 0.0 | 0.00 | 0.00 | 0.00 | 81 | ||
| 20260901214525 | 61 | 252 | 0.0 | 1.7 | 0.00 | 0.00 | 0.00 | 80 | |
| 20260901213525 | 60 | 270 | 0.0 | 1.7 | 0.00 | 0.00 | 0.00 | 82 | |
| 20260901212524 | 59 | 0.0 | 0.0 | 0.00 | 0.00 | 0.00 | 84 | ||
| 20260901211525 | 58 | 0.0 | 0.0 | 0.00 | 0.00 | 0.00 | 87 | ||
| 20260901210524 | 58 | 0.0 | 0.0 | 0.00 | 0.00 | 0.00 | 88 | ||
| 20260901205525 | 58 | 0.0 | 0.0 | 0.00 | 0.00 | 0.00 | 88 | ||
| 20260901204525 | 59 | 0.0 | 0.0 | 0.00 | 0.00 | 0.00 | 87 | ||
| 20260901203525 | 59 | 0.0 | 0.0 | 0.00 | 0.00 | 0.00 | 87 | ||
| 20260901202526 | 60 | 0.0 | 0.0 | 0.00 | 0.00 | 0.00 | 87 | ||
| 20260901201524 | 60 | 0.0 | 0.0 | 0.00 | 0.00 | 0.00 | 86 | ||
| 20260901200525 | 60 | 0.0 | 0.0 | 0.00 | 0.00 | 0.00 | 86 | ||
| 20260901195525 | 60 | 0.0 | 0.0 | 0.00 | 0.00 | 0.00 | 85 | ||
| 20260901194525 | 61 | 0.0 | 0.0 | 0.00 | 0.00 | 0.00 | 84 | ||
| 20260901193525 | 62 | 0.0 | 0.0 | 0.00 | 0.00 | 0.00 | 83 | ||
| 20260901192525 | 62 | 0.0 | 0.0 | 0.00 | 0.00 | 0.00 | 82 | ||
| 20260901191525 | 62 | 0.0 | 0.0 | 0.00 | 0.00 | 0.00 | 82 | ||
| 20260901190525 | 63 | 72 | 0.0 | 1.7 | 0.00 | 0.00 | 0.00 | 80 | |
| 20260901185525 | 63 | 0.0 | 0.0 | 0.00 | 0.00 | 0.00 | 79 | ||
| 20260901184525 | 63 | 0.0 | 0.0 | 0.00 | 0.00 | 0.00 | 79 | ||
| 20260901183525 | 64 | 0.0 | 0.0 | 0.00 | 0.00 | 0.00 | 78 | ||
| 20260901182535 | 64 | 0.0 | 0.0 | 0.00 | 0.00 | 0.00 | 78 | ||
| 20260901181525 | 64 | 91 | 0.0 | 1.7 | 0.00 | 0.00 | 0.00 | 77 | |
| 20260901180525 | 64 | 315 | 0.9 | 1.7 | 0.00 | 0.00 | 0.00 | 77 | |
| 20260901175525 | 65 | 4 | 0.0 | 1.7 | 0.00 | 0.00 | 0.00 | 75 | |
| 20260901174525 | 65 | 326 | 1.7 | 4.3 | 0.00 | 0.00 | 0.00 | 72 | |
| 20260901173525 | 67 | 304 | 0.9 | 3.5 | 0.00 | 0.00 | 0.00 | 64 | |
| 20260901172525 | 68 | 293 | 0.9 | 1.7 | 0.00 | 0.00 | 0.00 | 64 | |
| 20260901171525 | 68 | 233 | 0.9 | 2.6 | 0.00 | 0.00 | 0.00 | 62 | |
| 20260901170525 | 68 | 258 | 0.9 | 1.7 | 0.00 | 0.00 | 0.00 | 61 | |
| 20260901165525 | 69 | 268 | 0.9 | 2.6 | 0.00 | 0.00 | 0.00 | 60 | |
| 20260901164525 | 69 | 255 | 0.9 | 2.6 | 0.00 | 0.00 | 0.00 | 59 | |
| 20260901163525 | 69 | 280 | 1.7 | 3.5 | 0.00 | 0.00 | 0.00 | 58 | |
| 20260901162525 | 69 | 254 | 0.9 | 3.5 | 0.00 | 0.00 | 0.00 | 58 | |
| 20260901161525 | 69 | 346 | 0.9 | 1.7 | 0.00 | 0.00 | 0.00 | 57 | |
| 20260901160525 | 69 | 258 | 1.7 | 4.3 | 0.00 | 0.00 | 0.00 | 57 | |
| 20260901155525 | 69 | 238 | 1.7 | 3.5 | 0.00 | 0.00 | 0.00 | 57 | |
| 20260901154525 | 70 | 280 | 1.7 | 4.3 | 0.00 | 0.00 | 0.00 | 57 | |
| 20260901153525 | 70 | 260 | 1.7 | 3.5 | 0.00 | 0.00 | 0.00 | 57 | |
| 20260901152525 | 69 | 267 | 1.7 | 4.3 | 0.00 | 0.00 | 0.00 | 57 | |
| 20260901151525 | 68 | 248 | 0.9 | 3.5 | 0.00 | 0.00 | 0.00 | 59 | |
| 20260901150526 | 68 | 230 | 0.9 | 3.5 | 0.00 | 0.00 | 0.00 | 61 | |
| 20260901145525 | 68 | 300 | 0.9 | 2.6 | 0.00 | 0.00 | 0.00 | 62 | |
| 20260901144525 | 69 | 278 | 1.7 | 7.0 | 0.00 | 0.00 | 0.00 | 64 | |
| 20260901143525 | 69 | 279 | 1.7 | 5.2 | 0.00 | 0.00 | 0.00 | 60 | |
| 20260901142525 | 69 | 253 | 2.6 | 6.1 | 0.00 | 0.00 | 0.00 | 58 | |
| 20260901141525 | 70 | 275 | 1.7 | 5.2 | 0.00 | 0.00 | 0.00 | 56 | |
| 20260901140525 | 71 | 320 | 0.9 | 3.5 | 0.00 | 0.00 | 0.00 | 54 | |
| 20260901135525 | 71 | 272 | 0.9 | 4.3 | 0.00 | 0.00 | 0.00 | 53 | |
| 20260901134525 | 73 | 273 | 0.9 | 2.6 | 0.00 | 0.00 | 0.00 | 51 | |
| 20260901133525 | 74 | 266 | 1.7 | 4.3 | 0.00 | 0.00 | 0.00 | 50 | |
| 20260901132525 | 74 | 266 | 0.9 | 5.2 | 0.00 | 0.00 | 0.00 | 50 | |
| 20260901131525 | 74 | 266 | 1.7 | 5.2 | 0.00 | 0.00 | 0.00 | 51 | |
| 20260901130525 | 72 | 3 | 0.9 | 2.6 | 0.00 | 0.00 | 0.00 | 51 | |
| 20260901125525 | 72 | 285 | 2.6 | 5.2 | 0.00 | 0.00 | 0.00 | 54 | |
| 20260901124525 | 71 | 334 | 1.7 | 3.5 | 0.00 | 0.00 | 0.00 | 54 | |
| 20260901123525 | 71 | 282 | 2.6 | 7.0 | 0.00 | 0.00 | 0.00 | 55 | |
| 20260901122525 | 71 | 287 | 0.9 | 3.5 | 0.00 | 0.00 | 0.00 | 53 | |
| 20260901121525 | 70 | 257 | 3.5 | 7.0 | 0.00 | 0.00 | 0.00 | 54 | |
| 20260901120525 | 70 | 273 | 2.6 | 5.2 | 0.00 | 0.00 | 0.00 | 54 | |
| 20260901115525 | 70 | 303 | 2.6 | 6.1 | 0.00 | 0.00 | 0.00 | 55 | |
| 20260901114525 | 70 | 300 | 1.7 | 4.3 | 0.00 | 0.00 | 0.00 | 55 | |
| 20260901113525 | 70 | 278 | 1.7 | 4.3 | 0.00 | 0.00 | 0.00 | 55 | |
| 20260901112525 | 69 | 275 | 1.7 | 3.5 | 0.00 | 0.00 | 0.00 | 56 | |
| 20260901111525 | 70 | 270 | 1.7 | 3.5 | 0.00 | 0.00 | 0.00 | 56 | |
| 20260901110525 | 68 | 242 | 1.7 | 3.5 | 0.00 | 0.00 | 0.00 | 59 | |
| 20260901105525 | 67 | 273 | 1.7 | 3.5 | 0.00 | 0.00 | 0.00 | 62 | |
| 20260901104525 | 68 | 274 | 0.9 | 3.5 | 0.00 | 0.00 | 0.00 | 59 | |
| 20260901103530 | 67 | 293 | 1.7 | 4.3 | 0.00 | 0.00 | 0.00 | 62 | |
| 20260901102525 | 68 | 260 | 1.7 | 5.2 | 0.00 | 0.00 | 0.00 | 59 | |
| 20260901101525 | 68 | 280 | 1.7 | 3.5 | 0.00 | 0.00 | 0.00 | 58 | |
| 20260901100525 | 68 | 291 | 1.7 | 5.2 | 0.00 | 0.00 | 0.00 | 58 | |
| 20260901095526 | 69 | 280 | 0.9 | 1.7 | 0.00 | 0.00 | 0.00 | 62 | |
| 20260901094525 | 68 | 307 | 0.9 | 2.6 | 0.00 | 0.00 | 0.00 | 63 | |
| 20260901093525 | 67 | 311 | 0.9 | 2.6 | 0.00 | 0.00 | 0.00 | 66 | |
| 20260901092526 | 67 | 304 | 0.9 | 3.5 | 0.00 | 0.00 | 0.00 | 65 | |
| 20260901091525 | 66 | 271 | 1.7 | 3.5 | 0.00 | 0.00 | 0.00 | 67 | |
| 20260901090525 | 66 | 177 | 0.9 | 2.6 | 0.00 | 0.00 | 0.00 | 68 | |
| 20260901085525 | 66 | 260 | 0.9 | 3.5 | 0.00 | 0.00 | 0.00 | 67 | |
| 20260901084525 | 66 | 255 | 0.0 | 1.7 | 0.00 | 0.00 | 0.00 | 68 | |
| 20260901083525 | 63 | 263 | 0.9 | 1.7 | 0.00 | 0.00 | 0.00 | 73 | |
| 20260901082525 | 66 | 259 | 0.9 | 3.5 | 0.00 | 0.00 | 0.00 | 69 | |
| 20260901081525 | 65 | 258 | 0.9 | 1.7 | 0.00 | 0.00 | 0.00 | 69 | |
| 20260901080525 | 65 | 250 | 0.9 | 2.6 | 0.00 | 0.00 | 0.00 | 70 | |
| 20260901075525 | 64 | 0.0 | 0.0 | 0.00 | 0.00 | 0.00 | 71 | ||
| 20260901074525 | 67 | 270 | 0.0 | 1.7 | 0.00 | 0.00 | 0.00 | 66 | |
| 20260901073525 | 65 | 258 | 0.0 | 0.9 | 0.00 | 0.00 | 0.00 | 67 | |
| 20260901072525 | 66 | 258 | 0.0 | 1.7 | 0.00 | 0.00 | 0.00 | 64 | |
| 20260901071525 | 63 | 0.0 | 0.0 | 0.00 | 0.00 | 0.00 | 67 | ||
| 20260901070525 | 60 | 0.0 | 0.0 | 0.00 | 0.00 | 0.00 | 74 | ||
| 20260901065525 | 57 | 0.0 | 0.0 | 0.00 | 0.00 | 0.00 | 76 | ||
| 20260901064525 | 54 | 0.0 | 0.0 | 0.00 | 0.00 | 0.00 | 85 | ||
| 20260901063525 | 53 | 258 | 0.0 | 1.7 | 0.00 | 0.00 | 0.00 | 89 | |
| 20260901062525 | 50 | 0.0 | 0.0 | 0.00 | 0.00 | 0.00 | 94 | ||
| 20260901061525 | 48 | 0.0 | 0.0 | 0.00 | 0.00 | 0.00 | 95 | ||
| 20260901060525 | 48 | 0.0 | 0.0 | 0.00 | 0.00 | 0.00 | 95 | ||
| 20260901055525 | 47 | 0.0 | 0.0 | 0.00 | 0.00 | 0.00 | 95 | ||
| 20260901054525 | 48 | 0.0 | 0.0 | 0.00 | 0.00 | 0.00 | 95 | ||
| 20260901053526 | 48 | 252 | 0.0 | 1.7 | 0.00 | 0.00 | 0.00 | 95 | |
| 20260901052525 | 47 | 0.0 | 0.0 | 0.00 | 0.00 | 0.00 | 95 | ||
| 20260901051525 | 48 | 0.0 | 0.0 | 0.00 | 0.00 | 0.00 | 95 | ||
| 20260901050526 | 48 | 0.0 | 0.0 | 0.00 | 0.00 | 0.00 | 95 | ||
| 20260901045525 | 48 | 0.0 | 0.0 | 0.00 | 0.00 | 0.00 | 95 | ||
| 20260901044525 | 48 | 0.0 | 0.0 | 0.00 | 0.00 | 0.00 | 95 | ||
| 20260901043525 | 48 | 0.0 | 0.0 | 0.00 | 0.00 | 0.00 | 95 | ||
| 20260901042526 | 48 | 0.0 | 0.0 | 0.00 | 0.00 | 0.00 | 95 | ||
| 20260901041525 | 48 | 0.0 | 0.0 | 0.00 | 0.00 | 0.00 | 95 | ||
| 20260901040526 | 48 | 0.0 | 0.0 | 0.00 | 0.00 | 0.00 | 95 | ||
| 20260901035525 | 49 | 0.0 | 0.0 | 0.00 | 0.00 | 0.00 | 95 |